sensor_id;sensor_type;location;lat;lon;timestamp;pressure;altitude;pressure_sealevel;temperature;humidity
64336;BME280;50672;53.362;-6.240;2023-02-01T00:01:35;102439.25;;;6.09;76.04
64336;BME280;50672;53.362;-6.240;2023-02-01T00:04:02;102444.53;;;6.10;76.01
64336;BME280;50672;53.362;-6.240;2023-02-01T00:06:35;102445.28;;;6.12;76.10
64336;BME280;50672;53.362;-6.240;2023-02-01T00:09:02;102433.63;;;6.12;76.14
64336;BME280;50672;53.362;-6.240;2023-02-01T00:11:29;102425.63;;;6.10;76.25
64336;BME280;50672;53.362;-6.240;2023-02-01T00:13:57;102430.19;;;6.10;76.19
64336;BME280;50672;53.362;-6.240;2023-02-01T00:16:28;102429.06;;;6.12;76.19
64336;BME280;50672;53.362;-6.240;2023-02-01T00:21:33;102439.03;;;6.12;76.23
64336;BME280;50672;53.362;-6.240;2023-02-01T00:24:00;102439.88;;;6.12;76.43
64336;BME280;50672;53.362;-6.240;2023-02-01T00:26:37;102443.59;;;6.11;76.24
64336;BME280;50672;53.362;-6.240;2023-02-01T00:29:08;102430.06;;;6.11;76.42
64336;BME280;50672;53.362;-6.240;2023-02-01T00:31:36;102447.16;;;6.12;76.21
64336;BME280;50672;53.362;-6.240;2023-02-01T00:34:03;102437.28;;;6.11;76.22
64336;BME280;50672;53.362;-6.240;2023-02-01T00:36:36;102447.25;;;6.10;76.22
64336;BME280;50672;53.362;-6.240;2023-02-01T00:39:02;102441.84;;;6.10;76.24
64336;BME280;50672;53.362;-6.240;2023-02-01T00:41:29;102440.09;;;6.09;76.35
64336;BME280;50672;53.362;-6.240;2023-02-01T00:43:56;102438.28;;;6.10;76.25
64336;BME280;50672;53.362;-6.240;2023-02-01T00:46:23;102436.44;;;6.10;76.26
64336;BME280;50672;53.362;-6.240;2023-02-01T00:48:51;102436.00;;;6.16;76.26
64336;BME280;50672;53.362;-6.240;2023-02-01T00:51:21;102440.13;;;6.22;76.17
64336;BME280;50672;53.362;-6.240;2023-02-01T00:53:48;102452.56;;;6.25;76.21
64336;BME280;50672;53.362;-6.240;2023-02-01T00:56:16;102448.78;;;6.27;76.28
64336;BME280;50672;53.362;-6.240;2023-02-01T00:58:43;102449.00;;;6.24;76.12
64336;BME280;50672;53.362;-6.240;2023-02-01T01:01:17;102439.28;;;6.22;76.17
64336;BME280;50672;53.362;-6.240;2023-02-01T01:03:47;102435.38;;;6.26;76.01
64336;BME280;50672;53.362;-6.240;2023-02-01T01:06:17;102451.84;;;6.36;76.22
64336;BME280;50672;53.362;-6.240;2023-02-01T01:08:44;102440.69;;;6.40;76.11
64336;BME280;50672;53.362;-6.240;2023-02-01T01:11:14;102440.59;;;6.42;75.93
64336;BME280;50672;53.362;-6.240;2023-02-01T01:13:41;102436.28;;;6.39;76.08
64336;BME280;50672;53.362;-6.240;2023-02-01T01:16:09;102435.84;;;6.32;75.73
64336;BME280;50672;53.362;-6.240;2023-02-01T01:18:38;102433.44;;;6.28;76.03
64336;BME280;50672;53.362;-6.240;2023-02-01T01:21:06;102447.94;;;6.27;75.97
64336;BME280;50672;53.362;-6.240;2023-02-01T01:23:34;102450.66;;;6.27;75.94
64336;BME280;50672;53.362;-6.240;2023-02-01T01:26:05;102437.34;;;6.24;75.76
64336;BME280;50672;53.362;-6.240;2023-02-01T01:28:33;102445.63;;;6.21;75.90
64336;BME280;50672;53.362;-6.240;2023-02-01T01:31:00;102442.28;;;6.17;76.08
64336;BME280;50672;53.362;-6.240;2023-02-01T01:33:31;102449.84;;;6.12;75.99
64336;BME280;50672;53.362;-6.240;2023-02-01T01:35:58;102449.84;;;6.12;76.28
64336;BME280;50672;53.362;-6.240;2023-02-01T01:38:24;102427.38;;;6.11;76.28
64336;BME280;50672;53.362;-6.240;2023-02-01T01:40:51;102433.31;;;6.16;76.58
64336;BME280;50672;53.362;-6.240;2023-02-01T01:43:19;102421.75;;;6.27;76.60
64336;BME280;50672;53.362;-6.240;2023-02-01T01:45:49;102433.03;;;6.34;76.66
64336;BME280;50672;53.362;-6.240;2023-02-01T01:48:25;102438.75;;;6.42;76.81
64336;BME280;50672;53.362;-6.240;2023-02-01T01:53:27;102432.16;;;6.33;76.82
64336;BME280;50672;53.362;-6.240;2023-02-01T01:55:56;102421.75;;;6.27;77.05
64336;BME280;50672;53.362;-6.240;2023-02-01T01:58:26;102419.38;;;6.23;77.08
64336;BME280;50672;53.362;-6.240;2023-02-01T02:00:55;102421.53;;;6.18;77.26
64336;BME280;50672;53.362;-6.240;2023-02-01T02:03:25;102410.94;;;6.14;77.46
64336;BME280;50672;53.362;-6.240;2023-02-01T02:06:02;102406.38;;;6.15;77.56
64336;BME280;50672;53.362;-6.240;2023-02-01T02:08:30;102405.53;;;6.14;77.84
64336;BME280;50672;53.362;-6.240;2023-02-01T02:10:57;102409.41;;;6.10;77.73
64336;BME280;50672;53.362;-6.240;2023-02-01T02:13:37;102397.72;;;6.10;77.89
64336;BME280;50672;53.362;-6.240;2023-02-01T02:27:52;102409.84;;;6.04;78.64
64336;BME280;50672;53.362;-6.240;2023-02-01T02:33:34;102401.81;;;6.03;78.87
64336;BME280;50672;53.362;-6.240;2023-02-01T02:39:11;102402.91;;;6.00;79.06
64336;BME280;50672;53.362;-6.240;2023-02-01T02:45:20;102404.44;;;6.04;79.24
64336;BME280;50672;53.362;-6.240;2023-02-01T02:48:28;102401.63;;;6.06;78.95
64336;BME280;50672;53.362;-6.240;2023-02-01T02:51:20;102404.22;;;6.07;79.17
64336;BME280;50672;53.362;-6.240;2023-02-01T02:54:39;102407.03;;;6.06;79.22
64336;BME280;50672;53.362;-6.240;2023-02-01T02:57:26;102398.91;;;6.06;78.91
64336;BME280;50672;53.362;-6.240;2023-02-01T03:00:17;102391.66;;;6.06;78.97
64336;BME280;50672;53.362;-6.240;2023-02-01T03:03:09;102389.91;;;6.05;79.00
64336;BME280;50672;53.362;-6.240;2023-02-01T03:05:55;102386.25;;;6.06;78.98
64336;BME280;50672;53.362;-6.240;2023-02-01T03:08:24;102383.78;;;6.03;79.05
64336;BME280;50672;53.362;-6.240;2023-02-01T03:11:06;102398.03;;;6.05;79.14
64336;BME280;50672;53.362;-6.240;2023-02-01T03:13:55;102381.81;;;6.05;78.96
64336;BME280;50672;53.362;-6.240;2023-02-01T03:16:36;102386.25;;;6.06;79.16
64336;BME280;50672;53.362;-6.240;2023-02-01T03:21:48;102399.56;;;6.09;79.04
64336;BME280;50672;53.362;-6.240;2023-02-01T03:24:39;102379.88;;;6.07;79.17
64336;BME280;50672;53.362;-6.240;2023-02-01T03:27:39;102388.97;;;6.06;79.12
64336;BME280;50672;53.362;-6.240;2023-02-01T03:30:14;102382.59;;;6.07;78.97
64336;BME280;50672;53.362;-6.240;2023-02-01T03:32:47;102373.47;;;6.08;79.13
64336;BME280;50672;53.362;-6.240;2023-02-01T03:35:47;102389.50;;;6.11;78.97
64336;BME280;50672;53.362;-6.240;2023-02-01T03:38:20;102382.25;;;6.12;79.14
64336;BME280;50672;53.362;-6.240;2023-02-01T03:41:01;102389.50;;;6.11;78.96
64336;BME280;50672;53.362;-6.240;2023-02-01T03:43:33;102383.13;;;6.12;79.06
64336;BME280;50672;53.362;-6.240;2023-02-01T03:46:09;102376.09;;;6.10;79.07
64336;BME280;50672;53.362;-6.240;2023-02-01T03:48:39;102385.81;;;6.12;79.13
64336;BME280;50672;53.362;-6.240;2023-02-01T03:51:08;102384.09;;;6.11;79.19
64336;BME280;50672;53.362;-6.240;2023-02-01T03:53:36;102369.59;;;6.12;79.31
64336;BME280;50672;53.362;-6.240;2023-02-01T03:56:06;102361.47;;;6.12;79.41
64336;BME280;50672;53.362;-6.240;2023-02-01T03:58:34;102366.03;;;6.12;79.35
64336;BME280;50672;53.362;-6.240;2023-02-01T04:01:03;102341.03;;;6.08;79.38
64336;BME280;50672;53.362;-6.240;2023-02-01T04:03:30;102348.19;;;6.09;79.45
64336;BME280;50672;53.362;-6.240;2023-02-01T04:05:57;102338.03;;;6.13;79.33
64336;BME280;50672;53.362;-6.240;2023-02-01T04:08:24;102339.34;;;6.20;79.49
64336;BME280;50672;53.362;-6.240;2023-02-01T04:10:51;102341.47;;;6.28;79.09
64336;BME280;50672;53.362;-6.240;2023-02-01T04:13:18;102342.03;;;6.33;79.24
64336;BME280;50672;53.362;-6.240;2023-02-01T04:15:46;102334.59;;;6.37;79.14
64336;BME280;50672;53.362;-6.240;2023-02-01T04:18:16;102315.53;;;6.38;79.24
64336;BME280;50672;53.362;-6.240;2023-02-01T04:20:49;102321.56;;;6.42;79.17
64336;BME280;50672;53.362;-6.240;2023-02-01T04:23:15;102323.31;;;6.43;78.86
64336;BME280;50672;53.362;-6.240;2023-02-01T04:25:42;102312.38;;;6.44;79.10
64336;BME280;50672;53.362;-6.240;2023-02-01T04:28:09;102311.63;;;6.42;78.82
64336;BME280;50672;53.362;-6.240;2023-02-01T04:30:36;102311.88;;;6.39;78.83
64336;BME280;50672;53.362;-6.240;2023-02-01T04:33:03;102312.84;;;6.38;78.78
64336;BME280;50672;53.362;-6.240;2023-02-01T04:35:39;102309.34;;;6.36;78.55
64336;BME280;50672;53.362;-6.240;2023-02-01T04:38:06;102312.06;;;6.36;78.55
64336;BME280;50672;53.362;-6.240;2023-02-01T04:40:33;102314.66;;;6.38;78.63
64336;BME280;50672;53.362;-6.240;2023-02-01T04:43:00;102321.16;;;6.35;78.63
64336;BME280;50672;53.362;-6.240;2023-02-01T04:45:27;102323.75;;;6.37;78.14
64336;BME280;50672;53.362;-6.240;2023-02-01T04:47:54;102314.56;;;6.39;78.39
64336;BME280;50672;53.362;-6.240;2023-02-01T04:50:28;102321.69;;;6.40;78.33
64336;BME280;50672;53.362;-6.240;2023-02-01T04:52:55;102326.13;;;6.41;78.42
64336;BME280;50672;53.362;-6.240;2023-02-01T04:55:22;102317.28;;;6.39;78.36
64336;BME280;50672;53.362;-6.240;2023-02-01T04:58:09;102322.75;;;6.38;78.27
64336;BME280;50672;53.362;-6.240;2023-02-01T05:01:16;102318.97;;;6.40;78.38
64336;BME280;50672;53.362;-6.240;2023-02-01T05:03:43;102327.63;;;6.45;78.23
64336;BME280;50672;53.362;-6.240;2023-02-01T05:06:10;102317.66;;;6.46;78.17
64336;BME280;50672;53.362;-6.240;2023-02-01T05:08:37;102326.00;;;6.43;77.91
64336;BME280;50672;53.362;-6.240;2023-02-01T05:11:04;102338.03;;;6.39;78.07
64336;BME280;50672;53.362;-6.240;2023-02-01T05:13:31;102331.00;;;6.36;77.70
64336;BME280;50672;53.362;-6.240;2023-02-01T05:16:16;102325.56;;;6.36;77.85
64336;BME280;50672;53.362;-6.240;2023-02-01T05:18:43;102328.28;;;6.36;77.94
64336;BME280;50672;53.362;-6.240;2023-02-01T05:21:10;102324.63;;;6.37;77.96
64336;BME280;50672;53.362;-6.240;2023-02-01T05:23:37;102328.09;;;6.39;77.91
64336;BME280;50672;53.362;-6.240;2023-02-01T05:26:24;102330.88;;;6.38;77.76
64336;BME280;50672;53.362;-6.240;2023-02-01T05:28:57;102348.22;;;6.35;77.76
64336;BME280;50672;53.362;-6.240;2023-02-01T05:31:24;102349.41;;;6.44;77.67
64336;BME280;50672;53.362;-6.240;2023-02-01T05:33:51;102336.31;;;6.50;77.74
64336;BME280;50672;53.362;-6.240;2023-02-01T05:36:18;102340.81;;;6.50;77.60
64336;BME280;50672;53.362;-6.240;2023-02-01T05:38:45;102350.06;;;6.47;77.39
64336;BME280;50672;53.362;-6.240;2023-02-01T05:41:11;102355.25;;;6.50;77.42
64336;BME280;50672;53.362;-6.240;2023-02-01T05:43:39;102347.75;;;6.54;77.51
64336;BME280;50672;53.362;-6.240;2023-02-01T05:46:05;102366.81;;;6.53;77.62
64336;BME280;50672;53.362;-6.240;2023-02-01T05:48:32;102358.06;;;6.49;77.46
64336;BME280;50672;53.362;-6.240;2023-02-01T05:50:59;102348.44;;;6.45;77.55
64336;BME280;50672;53.362;-6.240;2023-02-01T05:53:26;102355.53;;;6.46;77.42
64336;BME280;50672;53.362;-6.240;2023-02-01T05:55:52;102352.09;;;6.44;77.54
64336;BME280;50672;53.362;-6.240;2023-02-01T05:58:19;102344.09;;;6.42;77.67
64336;BME280;50672;53.362;-6.240;2023-02-01T06:00:46;102344.31;;;6.39;77.76
64336;BME280;50672;53.362;-6.240;2023-02-01T06:03:20;102345.16;;;6.40;77.65
64336;BME280;50672;53.362;-6.240;2023-02-01T06:05:47;102356.84;;;6.40;77.87
64336;BME280;50672;53.362;-6.240;2023-02-01T06:08:14;102342.47;;;6.40;77.64
64336;BME280;50672;53.362;-6.240;2023-02-01T06:10:41;102348.72;;;6.40;78.02
64336;BME280;50672;53.362;-6.240;2023-02-01T06:13:08;102343.53;;;6.37;78.06
64336;BME280;50672;53.362;-6.240;2023-02-01T06:15:35;102357.06;;;6.37;77.95
64336;BME280;50672;53.362;-6.240;2023-02-01T06:18:04;102341.81;;;6.36;77.88
64336;BME280;50672;53.362;-6.240;2023-02-01T06:20:36;102333.59;;;6.38;78.22
64336;BME280;50672;53.362;-6.240;2023-02-01T06:23:03;102360.53;;;6.39;78.08
64336;BME280;50672;53.362;-6.240;2023-02-01T06:25:31;102342.34;;;6.41;78.10
64336;BME280;50672;53.362;-6.240;2023-02-01T06:28:01;102351.25;;;6.43;78.40
64336;BME280;50672;53.362;-6.240;2023-02-01T06:30:28;102354.25;;;6.39;78.50
64336;BME280;50672;53.362;-6.240;2023-02-01T06:32:54;102351.66;;;6.37;78.37
64336;BME280;50672;53.362;-6.240;2023-02-01T06:35:21;102345.41;;;6.37;78.63
64336;BME280;50672;53.362;-6.240;2023-02-01T06:37:48;102336.28;;;6.38;78.74
64336;BME280;50672;53.362;-6.240;2023-02-01T06:40:15;102327.31;;;6.37;78.71
64336;BME280;50672;53.362;-6.240;2023-02-01T06:42:48;102331.53;;;6.41;78.86
64336;BME280;50672;53.362;-6.240;2023-02-01T06:45:16;102346.81;;;6.42;78.82
64336;BME280;50672;53.362;-6.240;2023-02-01T06:47:42;102346.69;;;6.44;78.87
64336;BME280;50672;53.362;-6.240;2023-02-01T06:50:09;102356.44;;;6.46;79.19
64336;BME280;50672;53.362;-6.240;2023-02-01T06:52:36;102343.66;;;6.48;78.87
64336;BME280;50672;53.362;-6.240;2023-02-01T06:55:03;102339.75;;;6.53;79.02
64336;BME280;50672;53.362;-6.240;2023-02-01T06:57:37;102351.44;;;6.53;79.22
64336;BME280;50672;53.362;-6.240;2023-02-01T07:00:04;102332.28;;;6.56;79.08
64336;BME280;50672;53.362;-6.240;2023-02-01T07:02:45;102332.28;;;6.56;79.15
64336;BME280;50672;53.362;-6.240;2023-02-01T07:05:11;102338.56;;;6.57;79.07
64336;BME280;50672;53.362;-6.240;2023-02-01T07:07:38;102329.34;;;6.59;79.21
64336;BME280;50672;53.362;-6.240;2023-02-01T07:10:05;102334.88;;;6.58;79.24
64336;BME280;50672;53.362;-6.240;2023-02-01T07:12:32;102342.53;;;6.64;79.15
64336;BME280;50672;53.362;-6.240;2023-02-01T07:14:59;102342.34;;;6.67;79.17
64336;BME280;50672;53.362;-6.240;2023-02-01T07:17:28;102344.94;;;6.69;78.99
64336;BME280;50672;53.362;-6.240;2023-02-01T07:19:56;102343.09;;;6.69;79.29
64336;BME280;50672;53.362;-6.240;2023-02-01T07:22:26;102337.78;;;6.67;79.15
64336;BME280;50672;53.362;-6.240;2023-02-01T07:24:53;102347.00;;;6.65;79.37
64336;BME280;50672;53.362;-6.240;2023-02-01T07:27:19;102339.94;;;6.62;79.32
64336;BME280;50672;53.362;-6.240;2023-02-01T07:29:46;102352.63;;;6.62;79.21
64336;BME280;50672;53.362;-6.240;2023-02-01T07:32:13;102351.31;;;6.67;79.41
64336;BME280;50672;53.362;-6.240;2023-02-01T07:34:40;102349.34;;;6.70;79.35
64336;BME280;50672;53.362;-6.240;2023-02-01T07:37:06;102351.19;;;6.69;79.42
64336;BME280;50672;53.362;-6.240;2023-02-01T07:39:33;102362.03;;;6.69;79.32
64336;BME280;50672;53.362;-6.240;2023-02-01T07:42:00;102357.59;;;6.68;79.59
64336;BME280;50672;53.362;-6.240;2023-02-01T07:44:27;102369.41;;;6.67;79.50
64336;BME280;50672;53.362;-6.240;2023-02-01T07:46:54;102372.00;;;6.69;79.54
64336;BME280;50672;53.362;-6.240;2023-02-01T07:49:20;102370.25;;;6.67;79.54
64336;BME280;50672;53.362;-6.240;2023-02-01T07:51:47;102365.69;;;6.68;79.68
64336;BME280;50672;53.362;-6.240;2023-02-01T07:54:14;102378.25;;;6.69;79.52
64336;BME280;50672;53.362;-6.240;2023-02-01T07:56:41;102369.06;;;6.72;79.61
64336;BME280;50672;53.362;-6.240;2023-02-01T07:59:07;102369.81;;;6.74;79.68
64336;BME280;50672;53.362;-6.240;2023-02-01T08:01:34;102373.41;;;6.74;79.84
64336;BME280;50672;53.362;-6.240;2023-02-01T08:04:02;102369.69;;;6.75;80.08
64336;BME280;50672;53.362;-6.240;2023-02-01T08:06:32;102384.97;;;6.76;79.94
64336;BME280;50672;53.362;-6.240;2023-02-01T08:09:00;102394.03;;;6.75;80.09
64336;BME280;50672;53.362;-6.240;2023-02-01T08:11:27;102385.06;;;6.75;80.04
64336;BME280;50672;53.362;-6.240;2023-02-01T08:13:54;102389.53;;;6.76;80.04
64336;BME280;50672;53.362;-6.240;2023-02-01T08:16:22;102398.50;;;6.76;80.17
64336;BME280;50672;53.362;-6.240;2023-02-01T08:18:50;102390.25;;;6.78;80.35
64336;BME280;50672;53.362;-6.240;2023-02-01T08:21:30;102399.03;;;6.81;80.61
64336;BME280;50672;53.362;-6.240;2023-02-01T08:24:05;102399.78;;;6.83;80.50
64336;BME280;50672;53.362;-6.240;2023-02-01T08:26:32;102405.84;;;6.87;80.55
64336;BME280;50672;53.362;-6.240;2023-02-01T08:29:01;102413.84;;;6.89;80.52
64336;BME280;50672;53.362;-6.240;2023-02-01T08:31:30;102413.75;;;6.90;80.56
64336;BME280;50672;53.362;-6.240;2023-02-01T08:33:59;102403.69;;;6.92;80.42
64336;BME280;50672;53.362;-6.240;2023-02-01T08:36:28;102417.63;;;6.99;80.37
64336;BME280;50672;53.362;-6.240;2023-02-01T08:38:56;102418.03;;;7.06;80.44
64336;BME280;50672;53.362;-6.240;2023-02-01T08:41:25;102414.69;;;7.15;80.29
64336;BME280;50672;53.362;-6.240;2023-02-01T08:43:53;102429.50;;;7.22;80.36
64336;BME280;50672;53.362;-6.240;2023-02-01T08:46:21;102424.50;;;7.29;80.38
64336;BME280;50672;53.362;-6.240;2023-02-01T08:48:49;102406.06;;;7.34;80.20
64336;BME280;50672;53.362;-6.240;2023-02-01T08:51:18;102420.91;;;7.41;80.48
64336;BME280;50672;53.362;-6.240;2023-02-01T08:53:45;102423.13;;;7.47;80.36
64336;BME280;50672;53.362;-6.240;2023-02-01T08:56:14;102421.81;;;7.53;80.14
64336;BME280;50672;53.362;-6.240;2023-02-01T08:58:41;102418.78;;;7.58;80.04
64336;BME280;50672;53.362;-6.240;2023-02-01T09:01:10;102422.22;;;7.60;80.03
64336;BME280;50672;53.362;-6.240;2023-02-01T09:03:40;102429.63;;;7.58;79.69
64336;BME280;50672;53.362;-6.240;2023-02-01T09:06:12;102435.13;;;7.56;79.78
64336;BME280;50672;53.362;-6.240;2023-02-01T09:08:40;102438.72;;;7.57;79.55
64336;BME280;50672;53.362;-6.240;2023-02-01T09:11:11;102431.00;;;7.63;79.45
64336;BME280;50672;53.362;-6.240;2023-02-01T09:13:38;102433.97;;;7.72;79.47
64336;BME280;50672;53.362;-6.240;2023-02-01T09:16:05;102440.69;;;7.79;79.53
64336;BME280;50672;53.362;-6.240;2023-02-01T09:18:32;102438.59;;;7.82;79.05
64336;BME280;50672;53.362;-6.240;2023-02-01T09:20:59;102439.47;;;7.83;79.17
64336;BME280;50672;53.362;-6.240;2023-02-01T09:23:30;102444.03;;;7.82;78.93
64336;BME280;50672;53.362;-6.240;2023-02-01T09:26:03;102449.44;;;7.82;79.01
64336;BME280;50672;53.362;-6.240;2023-02-01T09:28:31;102444.03;;;7.82;78.88
64336;BME280;50672;53.362;-6.240;2023-02-01T09:30:58;102445.53;;;7.86;78.57
64336;BME280;50672;53.362;-6.240;2023-02-01T09:33:27;102444.19;;;7.92;78.49
64336;BME280;50672;53.362;-6.240;2023-02-01T09:35:59;102447.31;;;7.99;78.64
64336;BME280;50672;53.362;-6.240;2023-02-01T09:38:26;102463.84;;;8.07;78.28
64336;BME280;50672;53.362;-6.240;2023-02-01T09:40:54;102461.56;;;8.14;78.42
64336;BME280;50672;53.362;-6.240;2023-02-01T09:43:45;102451.31;;;8.17;78.29
64336;BME280;50672;53.362;-6.240;2023-02-01T09:46:32;102452.94;;;8.20;78.02
64336;BME280;50672;53.362;-6.240;2023-02-01T09:49:04;102444.66;;;8.21;77.84
64336;BME280;50672;53.362;-6.240;2023-02-01T09:51:43;102473.53;;;8.23;77.72
64336;BME280;50672;53.362;-6.240;2023-02-01T09:54:25;102455.28;;;8.25;77.62
64336;BME280;50672;53.362;-6.240;2023-02-01T09:57:04;102456.78;;;8.29;77.72
64336;BME280;50672;53.362;-6.240;2023-02-01T09:59:56;102462.00;;;8.32;77.43
64336;BME280;50672;53.362;-6.240;2023-02-01T10:02:26;102467.16;;;8.35;77.68
64336;BME280;50672;53.362;-6.240;2023-02-01T10:04:58;102458.06;;;8.36;77.40
64336;BME280;50672;53.362;-6.240;2023-02-01T10:10:02;102451.41;;;8.40;77.16
64336;BME280;50672;53.362;-6.240;2023-02-01T10:23:52;102463.06;;;8.65;76.90
64336;BME280;50672;53.362;-6.240;2023-02-01T10:26:25;102456.66;;;8.66;76.96
64336;BME280;50672;53.362;-6.240;2023-02-01T10:28:58;102457.19;;;8.71;76.98
64336;BME280;50672;53.362;-6.240;2023-02-01T10:31:30;102456.69;;;8.77;76.77
64336;BME280;50672;53.362;-6.240;2023-02-01T10:34:10;102453.84;;;8.90;76.78
64336;BME280;50672;53.362;-6.240;2023-02-01T10:36:43;102478.41;;;9.00;76.35
64336;BME280;50672;53.362;-6.240;2023-02-01T10:39:13;102461.50;;;8.96;76.57
64336;BME280;50672;53.362;-6.240;2023-02-01T10:41:41;102471.28;;;8.99;76.47
64336;BME280;50672;53.362;-6.240;2023-02-01T10:44:15;102475.22;;;9.06;76.53
64336;BME280;50672;53.362;-6.240;2023-02-01T10:46:43;102472.75;;;9.14;76.25
64336;BME280;50672;53.362;-6.240;2023-02-01T10:49:24;102480.53;;;9.19;76.10
64336;BME280;50672;53.362;-6.240;2023-02-01T10:52:01;102492.63;;;9.26;76.14
64336;BME280;50672;53.362;-6.240;2023-02-01T10:54:34;102482.63;;;9.38;76.10
64336;BME280;50672;53.362;-6.240;2023-02-01T10:57:24;102484.56;;;9.47;76.21
64336;BME280;50672;53.362;-6.240;2023-02-01T10:59:52;102491.50;;;9.51;75.83
64336;BME280;50672;53.362;-6.240;2023-02-01T11:02:26;102489.25;;;9.56;75.65
64336;BME280;50672;53.362;-6.240;2023-02-01T11:05:07;102492.47;;;9.62;75.82
64336;BME280;50672;53.362;-6.240;2023-02-01T11:07:39;102490.00;;;9.70;75.30
64336;BME280;50672;53.362;-6.240;2023-02-01T11:10:42;102488.94;;;9.82;75.38
64336;BME280;50672;53.362;-6.240;2023-02-01T11:13:15;102512.31;;;9.85;75.29
64336;BME280;50672;53.362;-6.240;2023-02-01T11:15:44;102512.19;;;9.86;74.83
64336;BME280;50672;53.362;-6.240;2023-02-01T11:18:18;102493.38;;;9.95;74.91
64336;BME280;50672;53.362;-6.240;2023-02-01T11:20:46;102500.81;;;9.92;74.79
64336;BME280;50672;53.362;-6.240;2023-02-01T11:23:22;102502.31;;;9.85;74.49
64336;BME280;50672;53.362;-6.240;2023-02-01T11:25:51;102496.13;;;9.83;74.48
64336;BME280;50672;53.362;-6.240;2023-02-01T11:28:21;102490.56;;;9.85;74.48
64336;BME280;50672;53.362;-6.240;2023-02-01T11:30:51;102498.59;;;9.86;74.29
64336;BME280;50672;53.362;-6.240;2023-02-01T11:33:24;102493.66;;;9.80;74.26
64336;BME280;50672;53.362;-6.240;2023-02-01T11:35:57;102480.47;;;9.75;74.29
64336;BME280;50672;53.362;-6.240;2023-02-01T11:38:30;102480.06;;;9.80;74.12
64336;BME280;50672;53.362;-6.240;2023-02-01T11:41:14;102464.97;;;9.87;74.15
64336;BME280;50672;53.362;-6.240;2023-02-01T11:44:00;102472.13;;;9.88;74.17
64336;BME280;50672;53.362;-6.240;2023-02-01T11:46:31;102476.81;;;9.86;74.28
64336;BME280;50672;53.362;-6.240;2023-02-01T11:49:19;102478.28;;;9.90;73.91
64336;BME280;50672;53.362;-6.240;2023-02-01T11:55:10;102460.84;;;9.93;73.81
64336;BME280;50672;53.362;-6.240;2023-02-01T12:03:01;102448.81;;;10.07;73.78
64336;BME280;50672;53.362;-6.240;2023-02-01T12:11:20;102441.06;;;10.23;73.27
64336;BME280;50672;53.362;-6.240;2023-02-01T12:14:13;102443.94;;;10.22;73.04
64336;BME280;50672;53.362;-6.240;2023-02-01T12:28:43;102446.09;;;10.07;72.23
64336;BME280;50672;53.362;-6.240;2023-02-01T12:31:21;102436.94;;;10.08;71.89
64336;BME280;50672;53.362;-6.240;2023-02-01T12:34:26;102444.50;;;10.25;72.04
64336;BME280;50672;53.362;-6.240;2023-02-01T12:37:00;102441.50;;;10.40;71.87
64336;BME280;50672;53.362;-6.240;2023-02-01T12:40:08;102434.13;;;10.52;71.49
64336;BME280;50672;53.362;-6.240;2023-02-01T12:42:52;102431.47;;;10.62;71.06
64336;BME280;50672;53.362;-6.240;2023-02-01T12:45:45;102423.75;;;10.67;70.96
64336;BME280;50672;53.362;-6.240;2023-02-01T12:50:55;102422.03;;;10.66;70.62
64336;BME280;50672;53.362;-6.240;2023-02-01T12:56:24;102437.09;;;10.70;70.16
64336;BME280;50672;53.362;-6.240;2023-02-01T12:58:55;102419.03;;;10.69;70.22
64336;BME280;50672;53.362;-6.240;2023-02-01T13:01:30;102416.44;;;10.67;69.85
64336;BME280;50672;53.362;-6.240;2023-02-01T13:04:12;102421.31;;;10.64;69.66
64336;BME280;50672;53.362;-6.240;2023-02-01T13:06:43;102428.34;;;10.66;69.63
64336;BME280;50672;53.362;-6.240;2023-02-01T13:09:21;102426.28;;;10.58;69.62
64336;BME280;50672;53.362;-6.240;2023-02-01T13:11:55;102418.13;;;10.58;69.51
64336;BME280;50672;53.362;-6.240;2023-02-01T13:14:53;102413.66;;;10.57;69.65
64336;BME280;50672;53.362;-6.240;2023-02-01T13:17:28;102424.31;;;10.60;69.72
64336;BME280;50672;53.362;-6.240;2023-02-01T13:20:06;102421.84;;;10.57;69.68
64336;BME280;50672;53.362;-6.240;2023-02-01T13:22:43;102425.81;;;10.53;69.35
64336;BME280;50672;53.362;-6.240;2023-02-01T13:25:15;102430.06;;;10.46;69.25
64336;BME280;50672;53.362;-6.240;2023-02-01T13:27:44;102423.59;;;10.37;69.45
64336;BME280;50672;53.362;-6.240;2023-02-01T13:38:56;102410.03;;;10.47;69.56
64336;BME280;50672;53.362;-6.240;2023-02-01T13:41:29;102417.53;;;10.55;69.62
64336;BME280;50672;53.362;-6.240;2023-02-01T13:44:28;102418.59;;;10.64;69.51
64336;BME280;50672;53.362;-6.240;2023-02-01T13:46:59;102417.19;;;10.69;69.49
64336;BME280;50672;53.362;-6.240;2023-02-01T13:49:31;102403.28;;;10.72;68.99
64336;BME280;50672;53.362;-6.240;2023-02-01T13:52:03;102417.03;;;10.71;68.81
64336;BME280;50672;53.362;-6.240;2023-02-01T13:54:34;102409.00;;;10.69;68.95
64336;BME280;50672;53.362;-6.240;2023-02-01T13:57:05;102418.19;;;10.68;68.74
64336;BME280;50672;53.362;-6.240;2023-02-01T14:04:52;102417.69;;;10.84;68.22
64336;BME280;50672;53.362;-6.240;2023-02-01T14:07:21;102407.31;;;10.78;67.82
64336;BME280;50672;53.362;-6.240;2023-02-01T14:09:48;102410.47;;;10.73;67.70
64336;BME280;50672;53.362;-6.240;2023-02-01T14:12:44;102403.97;;;10.65;67.51
64336;BME280;50672;53.362;-6.240;2023-02-01T14:15:24;102405.50;;;10.57;67.52
64336;BME280;50672;53.362;-6.240;2023-02-01T14:17:52;102406.09;;;10.61;67.78
64336;BME280;50672;53.362;-6.240;2023-02-01T14:20:42;102399.44;;;10.75;67.57
64336;BME280;50672;53.362;-6.240;2023-02-01T14:23:16;102412.81;;;10.88;67.75
64336;BME280;50672;53.362;-6.240;2023-02-01T14:25:44;102410.69;;;10.91;67.38
64336;BME280;50672;53.362;-6.240;2023-02-01T14:28:21;102410.84;;;10.90;67.65
64336;BME280;50672;53.362;-6.240;2023-02-01T14:30:50;102407.66;;;10.85;67.29
64336;BME280;50672;53.362;-6.240;2023-02-01T14:33:25;102405.63;;;10.87;67.48
64336;BME280;50672;53.362;-6.240;2023-02-01T14:36:13;102404.81;;;10.96;67.20
64336;BME280;50672;53.362;-6.240;2023-02-01T14:38:48;102409.84;;;11.01;66.97
64336;BME280;50672;53.362;-6.240;2023-02-01T14:41:34;102396.78;;;10.94;66.84
64336;BME280;50672;53.362;-6.240;2023-02-01T14:49:36;102396.69;;;11.06;66.78